Time;durP1;ratioP1;P1;durP2;ratioP2;P2;SDS_P1;SDS_P2;PMS_P1;PMS_P2;Temp;Humidity;BMP_temperature;BMP_pressure;BME280_temperature;BME280_humidity;BME280_pressure;Samples;Min_cycle;Max_cycle;Signal;HPM_P1;HPM_P2
2023/10/25 00:00:15;;;;;;;27.17;8.77;;;;;;;14.01;89.26;94782.09;5019674;28;20284;-70
2023/10/25 00:02:41;;;;;;;29.10;8.70;;;;;;;13.77;90.42;94774.31;5010267;28;20235;-78
2023/10/25 00:05:06;;;;;;;29.13;8.80;;;;;;;13.73;89.73;94771.31;5016115;28;20238;-78
2023/10/25 00:07:32;;;;;;;24.77;8.70;;;;;;;13.88;89.44;94776.19;4994634;28;20321;-78
2023/10/25 00:10:00;;;;;;;25.77;8.33;;;;;;;13.91;89.03;94766.03;4992801;28;20234;-78
2023/10/25 00:12:26;;;;;;;23.33;7.93;;;;;;;13.79;89.52;94751.22;5002097;28;21021;-70
2023/10/25 00:14:52;;;;;;;26.73;8.70;;;;;;;13.69;89.85;94743.88;5018153;28;20238;-69
2023/10/25 00:17:18;;;;;;;20.80;7.90;;;;;;;13.48;91.09;94747.78;5000957;28;20294;-70
2023/10/25 00:19:43;;;;;;;26.90;8.23;;;;;;;13.72;89.81;94753.94;4996216;28;20970;-70
2023/10/25 00:22:09;;;;;;;21.03;8.27;;;;;;;13.72;89.83;94745.25;5030111;28;20826;-70
2023/10/25 00:24:34;;;;;;;26.80;8.03;;;;;;;13.47;90.31;94740.91;5013850;28;20234;-69
2023/10/25 00:27:00;;;;;;;27.27;8.37;;;;;;;13.67;90.12;94756.44;5003227;28;20234;-70
2023/10/25 00:29:25;;;;;;;22.90;7.80;;;;;;;13.82;89.07;94753.41;5004414;28;21021;-70
2023/10/25 00:31:51;;;;;;;24.33;7.60;;;;;;;13.99;88.54;94744.69;4998397;28;20306;-69
2023/10/25 00:34:16;;;;;;;21.97;7.80;;;;;;;14.11;87.83;94740.22;5011967;28;20261;-70
2023/10/25 00:36:42;;;;;;;24.40;7.67;;;;;;;14.12;87.82;94738.41;4979883;28;20222;-69
2023/10/25 00:39:07;;;;;;;25.43;7.60;;;;;;;14.00;88.73;94732.28;5011159;28;20835;-69
2023/10/25 00:41:32;;;;;;;23.93;8.00;;;;;;;13.91;88.84;94720.50;4998127;28;20603;-70
2023/10/25 00:43:58;;;;;;;25.07;7.53;;;;;;;14.17;88.08;94728.00;4983694;28;20223;-69
2023/10/25 00:46:25;;;;;;;25.70;8.17;;;;;;;14.08;88.29;94726.72;4994000;28;20235;-69
2023/10/25 00:48:52;;;;;;;21.27;7.33;;;;;;;14.15;87.86;94724.78;5007064;28;20318;-70
2023/10/25 00:51:18;;;;;;;20.30;7.03;;;;;;;13.67;89.78;94718.81;4982781;28;20293;-69
2023/10/25 00:53:48;;;;;;;23.83;7.47;;;;;;;13.66;90.35;94725.13;5008977;28;20239;-69
2023/10/25 00:56:14;;;;;;;18.23;7.17;;;;;;;13.89;89.30;94751.50;4997480;28;20233;-70
2023/10/25 00:58:40;;;;;;;22.77;7.17;;;;;;;14.00;88.52;94746.25;5021878;28;20259;-70
2023/10/25 01:01:06;;;;;;;26.10;7.60;;;;;;;13.95;88.49;94740.88;5009293;28;20341;-69
2023/10/25 01:03:31;;;;;;;20.03;6.80;;;;;;;13.85;89.69;94739.81;5014493;28;20258;-70
2023/10/25 01:05:57;;;;;;;21.80;6.37;;;;;;;13.92;88.28;94722.13;4993338;28;20283;-70
2023/10/25 01:08:22;;;;;;;26.90;6.87;;;;;;;13.85;88.21;94711.66;4995843;28;20236;-70
2023/10/25 01:10:52;;;;;;;26.47;7.00;;;;;;;13.69;89.63;94700.97;4992604;28;20291;-70
2023/10/25 01:13:18;;;;;;;20.60;6.40;;;;;;;13.87;88.56;94699.13;4966524;28;20231;-69
2023/10/25 01:15:43;;;;;;;24.60;6.90;;;;;;;13.85;88.91;94708.25;5005391;28;20255;-69
2023/10/25 01:18:09;;;;;;;20.00;6.40;;;;;;;13.89;88.41;94707.56;5002326;28;20247;-69
2023/10/25 01:20:35;;;;;;;23.47;6.70;;;;;;;13.91;87.87;94709.97;4995677;28;20252;-69
2023/10/25 01:23:01;;;;;;;22.47;6.30;;;;;;;13.95;87.59;94705.84;4983617;28;20226;-69
2023/10/25 01:25:26;;;;;;;17.23;6.37;;;;;;;13.84;88.68;94702.19;4979650;28;20230;-70
2023/10/25 01:27:52;;;;;;;18.40;6.17;;;;;;;13.58;89.78;94697.28;4980985;28;20843;-69
2023/10/25 01:30:17;;;;;;;25.90;6.47;;;;;;;13.70;88.95;94703.41;5017268;28;20238;-69
2023/10/25 01:32:43;;;;;;;22.50;6.50;;;;;;;13.76;89.14;94701.69;4976552;28;20250;-70
2023/10/25 01:35:08;;;;;;;18.73;6.43;;;;;;;13.86;88.66;94699.31;5000797;28;20266;-70
2023/10/25 01:37:34;;;;;;;21.53;6.43;;;;;;;13.69;89.51;94698.34;4999408;28;20241;-70
2023/10/25 01:40:00;;;;;;;23.53;6.00;;;;;;;13.67;89.47;94697.78;4966449;28;20230;-70
2023/10/25 01:42:25;;;;;;;15.67;6.10;;;;;;;13.65;89.76;94705.91;5001856;28;20307;-69
2023/10/25 01:44:51;;;;;;;21.23;6.50;;;;;;;13.60;89.36;94707.56;5001116;28;20387;-71
2023/10/25 01:47:16;;;;;;;19.97;6.10;;;;;;;13.58;89.27;94725.41;5002509;28;20227;-70
2023/10/25 01:49:43;;;;;;;25.00;6.77;;;;;;;13.43;90.58;94736.31;5003813;28;20223;-70
2023/10/25 01:52:08;;;;;;;18.80;6.20;;;;;;;13.39;90.35;94732.53;5006173;28;20250;-69
2023/10/25 01:54:34;;;;;;;17.70;5.93;;;;;;;13.52;90.11;94731.56;5014958;28;20317;-71
2023/10/25 01:57:00;;;;;;;18.50;6.10;;;;;;;13.48;89.97;94728.56;4991894;28;20270;-70
2023/10/25 01:59:25;;;;;;;19.53;6.10;;;;;;;13.55;90.11;94725.84;5008057;28;20227;-69
2023/10/25 02:01:51;;;;;;;18.33;6.57;;;;;;;13.60;89.42;94736.50;4965774;28;20238;-70
2023/10/25 02:04:16;;;;;;;16.60;6.10;;;;;;;13.60;89.73;94729.44;4999159;28;20249;-70
2023/10/25 02:06:43;;;;;;;20.70;6.40;;;;;;;13.65;89.44;94734.00;4980627;28;20256;-69
2023/10/25 02:09:08;;;;;;;23.23;6.07;;;;;;;13.66;89.41;94735.63;5018547;28;20237;-70
2023/10/25 02:11:34;;;;;;;19.23;6.57;;;;;;;13.56;89.53;94717.75;5000115;28;20243;-72
2023/10/25 02:13:59;;;;;;;20.10;5.87;;;;;;;13.66;89.83;94725.88;5000406;28;20237;-70
2023/10/25 02:16:26;;;;;;;23.00;6.53;;;;;;;13.44;89.24;94722.97;4983421;28;20270;-69
2023/10/25 02:18:51;;;;;;;22.20;6.40;;;;;;;13.38;89.91;94725.66;4999331;28;20375;-70
2023/10/25 02:21:17;;;;;;;17.70;6.43;;;;;;;13.50;90.10;94722.06;4988427;28;20230;-69
2023/10/25 02:23:42;;;;;;;15.73;6.30;;;;;;;13.40;90.30;94711.28;4993814;28;20272;-69
2023/10/25 02:26:08;;;;;;;21.97;6.20;;;;;;;13.57;89.03;94697.50;5010353;28;20226;-70
2023/10/25 02:28:33;;;;;;;16.97;5.97;;;;;;;13.63;89.26;94707.94;5004197;28;20337;-69
2023/10/25 02:31:00;;;;;;;19.67;5.87;;;;;;;13.60;89.37;94687.34;4975532;28;20253;-69
2023/10/25 02:33:26;;;;;;;17.43;5.80;;;;;;;13.66;89.26;94691.69;4982632;28;20264;-69
2023/10/25 02:35:52;;;;;;;20.47;6.30;;;;;;;13.69;88.91;94686.00;4965344;28;20219;-69
2023/10/25 02:38:18;;;;;;;22.23;6.00;;;;;;;13.68;88.20;94670.47;4965542;28;20314;-70
2023/10/25 02:40:43;;;;;;;19.23;5.87;;;;;;;13.70;88.25;94655.25;5009957;28;20375;-70
2023/10/25 02:43:09;;;;;;;17.17;5.60;;;;;;;13.63;87.96;94642.22;4997847;28;20280;-69
2023/10/25 02:45:34;;;;;;;22.33;6.40;;;;;;;13.56;89.38;94649.38;5021571;28;20231;-70
2023/10/25 02:48:00;;;;;;;22.37;5.87;;;;;;;13.75;88.35;94629.06;5002285;28;20315;-70
2023/10/25 02:50:25;;;;;;;19.47;5.70;;;;;;;13.82;87.49;94599.03;4979180;28;20239;-68
2023/10/25 02:52:51;;;;;;;16.57;5.63;;;;;;;13.98;86.85;94616.75;4999915;28;20306;-70
2023/10/25 02:55:16;;;;;;;21.30;5.97;;;;;;;14.06;86.20;94595.38;4965839;28;20325;-70
2023/10/25 02:57:42;;;;;;;15.70;5.43;;;;;;;14.18;86.20;94621.69;5015392;28;20780;-70
2023/10/25 03:00:11;;;;;;;19.70;5.40;;;;;;;14.20;85.88;94611.72;4984821;28;20255;-70
2023/10/25 03:02:37;;;;;;;18.43;5.60;;;;;;;14.24;85.58;94620.75;4991203;28;20658;-70
2023/10/25 03:05:03;;;;;;;19.97;5.73;;;;;;;14.24;85.68;94612.88;4964620;28;20235;-69
2023/10/25 03:07:32;;;;;;;21.20;6.07;;;;;;;14.23;85.38;94623.63;4969048;28;20588;-71
2023/10/25 03:09:57;;;;;;;23.97;6.03;;;;;;;13.88;87.35;94605.97;4967168;28;20260;-70
2023/10/25 03:12:23;;;;;;;20.93;5.53;;;;;;;13.88;88.42;94613.06;4967603;28;20240;-70
2023/10/25 03:14:48;;;;;;;21.10;5.60;;;;;;;14.18;86.69;94622.50;4974164;28;20886;-70
2023/10/25 03:17:14;;;;;;;19.07;5.50;;;;;;;14.15;85.77;94586.09;4989194;28;20280;-70
2023/10/25 03:19:39;;;;;;;25.07;5.83;;;;;;;14.06;87.37;94571.69;4967446;28;20259;-70
2023/10/25 03:22:06;;;;;;;20.73;5.37;;;;;;;14.17;86.10;94607.72;4973196;28;20289;-70
2023/10/25 03:24:31;;;;;;;24.60;6.87;;;;;;;14.13;86.67;94600.53;4963231;28;20973;-70
2023/10/25 03:26:57;;;;;;;24.33;6.87;;;;;;;14.15;86.08;94603.72;4974455;28;20233;-69
2023/10/25 03:29:22;;;;;;;20.40;6.53;;;;;;;14.22;86.44;94614.94;4980358;28;20229;-69
2023/10/25 03:31:48;;;;;;;31.80;8.67;;;;;;;14.20;86.07;94614.38;5036795;28;20256;-69
2023/10/25 03:34:14;;;;;;;26.80;9.20;;;;;;;13.90;86.38;94603.16;4964999;28;20232;-70
2023/10/25 03:36:40;;;;;;;28.50;9.67;;;;;;;13.68;87.66;94588.94;4962490;28;20242;-71
2023/10/25 03:39:05;;;;;;;30.67;9.30;;;;;;;13.73;88.17;94610.09;4976483;28;20236;-70
2023/10/25 03:41:31;;;;;;;29.17;9.60;;;;;;;13.60;87.19;94608.47;4969227;28;20677;-70
2023/10/25 03:43:57;;;;;;;27.17;9.33;;;;;;;13.58;87.75;94599.19;5038711;28;20466;-68
2023/10/25 03:46:22;;;;;;;25.83;9.33;;;;;;;13.52;88.03;94597.47;4951299;28;20780;-69
2023/10/25 03:48:48;;;;;;;24.83;8.90;;;;;;;13.62;87.28;94584.56;4935566;28;20251;-69
2023/10/25 03:51:13;;;;;;;25.70;8.43;;;;;;;13.44;87.99;94593.34;4971181;28;20286;-70
2023/10/25 03:53:39;;;;;;;27.60;8.63;;;;;;;13.42;87.96;94605.91;4964837;28;20298;-70
2023/10/25 03:56:05;;;;;;;25.30;8.23;;;;;;;13.26;89.08;94606.53;4991324;28;20224;-70
2023/10/25 03:58:30;;;;;;;25.33;8.30;;;;;;;13.61;87.40;94614.53;5030393;28;20237;-69
2023/10/25 04:01:03;;;;;;;25.77;8.43;;;;;;;13.30;88.16;94587.44;4943397;28;20997;-70
2023/10/25 04:03:29;;;;;;;23.57;8.10;;;;;;;13.50;87.78;94602.94;4968183;28;20943;-70
2023/10/25 04:05:55;;;;;;;26.33;8.70;;;;;;;13.50;87.62;94592.44;5008266;28;20257;-70
2023/10/25 04:08:20;;;;;;;23.87;8.07;;;;;;;13.41;88.33;94575.38;4973096;28;20234;-69
2023/10/25 04:10:50;;;;;;;27.57;8.50;;;;;;;13.58;87.87;94586.03;5016917;28;20265;-70
2023/10/25 04:13:16;;;;;;;25.03;8.57;;;;;;;13.57;87.20;94598.38;5018980;28;20245;-70
2023/10/25 04:15:42;;;;;;;25.00;8.40;;;;;;;13.68;87.51;94610.78;4967013;28;20259;-70
2023/10/25 04:18:09;;;;;;;29.90;8.57;;;;;;;13.73;87.21;94602.19;4987081;28;20782;-78
2023/10/25 04:20:35;;;;;;;28.37;8.47;;;;;;;13.83;86.64;94602.44;5001890;28;20237;-77
2023/10/25 04:23:00;;;;;;;27.93;8.30;;;;;;;13.75;87.28;94598.31;5001684;28;20230;-77
2023/10/25 04:25:26;;;;;;;27.47;8.90;;;;;;;13.40;88.85;94589.53;5005293;28;20227;-77
2023/10/25 04:27:55;;;;;;;25.53;8.50;;;;;;;13.70;88.06;94600.03;5016880;28;20234;-77
2023/10/25 04:30:21;;;;;;;27.57;8.63;;;;;;;13.68;87.69;94602.06;4986816;28;20253;-78
2023/10/25 04:32:46;;;;;;;25.87;8.40;;;;;;;13.63;88.27;94599.31;4996477;28;20863;-79
2023/10/25 04:35:12;;;;;;;23.43;8.57;;;;;;;13.79;87.53;94583.69;4996367;28;20283;-79
2023/10/25 04:37:38;;;;;;;26.20;8.67;;;;;;;13.79;87.97;94564.47;4984807;28;20747;-71
2023/10/25 04:40:04;;;;;;;26.63;8.67;;;;;;;13.65;88.09;94576.22;4976348;28;20700;-69
2023/10/25 04:42:29;;;;;;;29.20;8.97;;;;;;;13.84;87.39;94575.09;4966739;28;20235;-70
2023/10/25 04:44:55;;;;;;;31.23;8.90;;;;;;;13.87;87.22;94561.50;5000272;28;20753;-70
2023/10/25 04:47:20;;;;;;;27.90;8.87;;;;;;;13.84;87.73;94552.22;5008759;28;20234;-70
2023/10/25 04:49:46;;;;;;;26.10;8.57;;;;;;;13.99;86.83;94538.63;5013666;28;20234;-70
2023/10/25 04:52:11;;;;;;;28.73;8.80;;;;;;;13.87;87.30;94519.41;4965893;28;20239;-69
2023/10/25 04:54:37;;;;;;;23.73;9.10;;;;;;;13.95;87.79;94543.53;5011088;28;20239;-69
2023/10/25 04:57:02;;;;;;;29.97;8.00;;;;;;;13.90;88.15;94540.00;5015936;28;20723;-70
2023/10/25 04:59:29;;;;;;;30.87;9.13;;;;;;;14.06;87.38;94542.75;5000380;28;20226;-69
2023/10/25 05:01:54;;;;;;;22.77;7.90;;;;;;;14.09;87.50;94538.84;4966350;28;20238;-70
2023/10/25 05:04:20;;;;;;;25.30;8.13;;;;;;;14.18;86.48;94530.38;5027322;28;20232;-69
2023/10/25 05:06:46;;;;;;;36.93;9.20;;;;;;;14.16;86.69;94529.00;5069232;28;20748;-70
2023/10/25 05:09:12;;;;;;;34.70;8.80;;;;;;;14.10;87.49;94525.47;5051353;28;20232;-70
2023/10/25 05:11:38;;;;;;;41.77;9.37;;;;;;;14.08;87.29;94505.66;5061508;28;20239;-70
2023/10/25 05:14:03;;;;;;;28.30;9.03;;;;;;;14.16;87.47;94529.78;5051161;28;20244;-69
2023/10/25 05:16:29;;;;;;;34.67;8.80;;;;;;;13.93;88.37;94529.81;5062619;28;20229;-70
2023/10/25 05:18:55;;;;;;;40.43;8.90;;;;;;;14.11;87.79;94544.69;5066522;28;20217;-70
2023/10/25 05:21:21;;;;;;;42.90;9.27;;;;;;;14.29;86.80;94528.75;5062930;28;20957;-70
2023/10/25 05:23:46;;;;;;;36.13;9.57;;;;;;;14.28;86.87;94547.41;5046647;28;20251;-70
2023/10/25 05:26:12;;;;;;;29.07;8.87;;;;;;;14.24;87.52;94536.53;5055326;28;20899;-71
2023/10/25 05:28:38;;;;;;;33.43;9.17;;;;;;;14.29;86.56;94531.38;5072213;28;20225;-69
2023/10/25 05:31:04;;;;;;;35.03;8.53;;;;;;;14.35;86.59;94522.59;5066392;28;20252;-70
2023/10/25 05:33:31;;;;;;;27.40;8.33;;;;;;;14.38;86.14;94516.03;5063489;28;20229;-71
2023/10/25 05:35:57;;;;;;;28.07;9.40;;;;;;;14.45;86.29;94541.22;5061602;28;20309;-69
2023/10/25 05:38:23;;;;;;;31.43;9.20;;;;;;;14.41;85.78;94540.09;5028929;28;20304;-70
2023/10/25 05:40:49;;;;;;;32.50;9.43;;;;;;;14.29;86.81;94534.00;5041528;28;20706;-70
2023/10/25 05:43:15;;;;;;;35.70;9.10;;;;;;;14.24;87.19;94539.16;5043643;28;20243;-69
2023/10/25 05:45:42;;;;;;;28.37;8.97;;;;;;;14.32;87.16;94541.50;5044930;28;20250;-72
2023/10/25 05:48:11;;;;;;;28.80;8.90;;;;;;;14.13;87.93;94534.72;5050821;28;20288;-70
2023/10/25 05:50:37;;;;;;;31.30;9.13;;;;;;;13.99;89.15;94541.25;5070215;28;20224;-70
2023/10/25 05:53:03;;;;;;;30.47;9.23;;;;;;;14.29;87.56;94555.06;5067238;28;20255;-70
2023/10/25 05:55:29;;;;;;;38.10;9.27;;;;;;;14.25;87.61;94546.03;5064599;28;20328;-70
2023/10/25 05:57:54;;;;;;;39.80;11.23;;;;;;;14.32;88.07;94540.69;5033662;28;20234;-83
2023/10/25 06:00:20;;;;;;;27.50;9.37;;;;;;;14.47;87.26;94548.91;5068364;28;20697;-82
2023/10/25 06:02:46;;;;;;;34.57;10.50;;;;;;;14.55;86.79;94573.03;5069167;28;20240;-84
2023/10/25 06:05:15;;;;;;;35.90;9.83;;;;;;;14.38;87.27;94558.97;5051957;28;20621;-80
2023/10/25 06:07:41;;;;;;;31.93;9.93;;;;;;;14.48;87.79;94569.72;5045679;28;20229;-82
2023/10/25 06:10:07;;;;;;;34.93;10.17;;;;;;;14.64;85.28;94547.16;5046718;28;20285;-84
2023/10/25 06:12:33;;;;;;;39.80;10.77;;;;;;;14.65;85.66;94557.44;5053184;28;20259;-83
2023/10/25 06:14:58;;;;;;;37.27;11.00;;;;;;;14.72;84.78;94542.31;5069136;28;20247;-84
2023/10/25 06:17:24;;;;;;;32.90;10.83;;;;;;;14.83;84.60;94540.69;5037206;28;20229;-85
2023/10/25 06:19:52;;;;;;;29.83;10.33;;;;;;;14.76;85.48;94555.78;5056461;28;20224;-83
2023/10/25 06:22:17;;;;;;;35.13;10.30;;;;;;;14.81;85.16;94558.53;5075972;28;20232;-84
2023/10/25 06:24:43;;;;;;;37.10;10.17;;;;;;;14.91;84.77;94573.75;5050361;28;20243;-82
2023/10/25 06:27:08;;;;;;;38.60;10.87;;;;;;;14.97;84.69;94568.34;5053981;28;20309;-83
2023/10/25 06:29:34;;;;;;;36.07;11.13;;;;;;;15.06;84.65;94558.22;5043463;28;20608;-69
2023/10/25 06:32:00;;;;;;;44.33;11.73;;;;;;;15.10;83.38;94552.25;5067436;28;20220;-69
2023/10/25 06:34:25;;;;;;;38.47;11.80;;;;;;;15.21;82.92;94559.28;5032984;28;20226;-70
2023/10/25 06:36:51;;;;;;;35.50;11.37;;;;;;;15.18;83.98;94569.50;5048047;28;20252;-70
2023/10/25 06:39:17;;;;;;;33.63;11.23;;;;;;;15.17;83.35;94573.19;5050832;28;20733;-69
2023/10/25 06:41:43;;;;;;;35.40;11.13;;;;;;;15.29;83.74;94572.09;5052094;28;20261;-70
2023/10/25 06:44:09;;;;;;;36.53;11.07;;;;;;;15.31;82.84;94561.31;5052213;28;20362;-69
2023/10/25 06:46:35;;;;;;;44.80;11.00;;;;;;;15.51;81.62;94553.78;5073913;28;20224;-70
2023/10/25 06:49:00;;;;;;;41.53;11.80;;;;;;;15.57;82.26;94552.81;5071534;28;20224;-69
2023/10/25 06:51:26;;;;;;;34.47;10.60;;;;;;;15.59;82.03;94548.13;5056720;28;20237;-69
2023/10/25 06:53:52;;;;;;;35.67;10.73;;;;;;;15.60;82.26;94552.34;5052326;28;20228;-69
2023/10/25 06:56:18;;;;;;;34.43;10.77;;;;;;;15.65;82.56;94549.78;5047308;28;20776;-69
2023/10/25 06:58:44;;;;;;;42.37;11.40;;;;;;;15.75;81.62;94554.44;5068656;28;20235;-71
2023/10/25 07:01:11;;;;;;;33.73;10.93;;;;;;;15.80;82.28;94565.88;5071395;28;20233;-70
2023/10/25 07:03:37;;;;;;;38.43;11.63;;;;;;;15.72;82.02;94571.53;5049096;28;20228;-70
2023/10/25 07:06:03;;;;;;;37.47;10.93;;;;;;;15.80;81.25;94565.88;5012092;28;20231;-69
2023/10/25 07:08:32;;;;;;;35.60;11.33;;;;;;;15.84;80.83;94566.97;4968365;28;20250;-72
2023/10/25 07:10:58;;;;;;;37.47;11.50;;;;;;;15.90;80.87;94576.59;5004498;28;20725;-70
2023/10/25 07:13:32;;;;;;;37.77;11.43;;;;;;;16.01;80.21;94567.78;4984572;28;20243;-70
2023/10/25 07:15:58;;;;;;;41.47;11.00;;;;;;;16.10;79.64;94579.53;4974359;28;20395;-69
2023/10/25 07:18:24;;;;;;;39.40;11.13;;;;;;;16.15;80.00;94595.44;4979647;28;20958;-70
2023/10/25 07:20:50;;;;;;;42.00;12.07;;;;;;;16.10;80.51;94584.81;5020183;28;20296;-68
2023/10/25 07:23:19;;;;;;;40.30;11.67;;;;;;;16.21;80.13;94584.97;5015260;28;20790;-69
2023/10/25 07:25:44;;;;;;;40.10;11.27;;;;;;;16.18;81.00;94594.97;5003373;28;20234;-70
2023/10/25 07:28:10;;;;;;;40.43;11.17;;;;;;;16.27;80.17;94599.81;5022749;28;20235;-70
2023/10/25 07:30:35;;;;;;;30.67;11.10;;;;;;;16.35;79.62;94596.78;4984843;28;20231;-70
2023/10/25 07:33:01;;;;;;;50.47;16.57;;;;;;;16.37;80.24;94602.63;5002828;28;20242;-69
2023/10/25 07:35:26;;;;;;;35.60;11.53;;;;;;;16.43;79.43;94599.03;4999950;28;20245;-69
2023/10/25 07:37:52;;;;;;;36.23;11.73;;;;;;;16.45;79.58;94600.38;4987544;28;20238;-70
2023/10/25 07:40:18;;;;;;;33.30;11.80;;;;;;;16.46;78.35;94603.81;5002654;28;20772;-68
2023/10/25 07:42:43;;;;;;;38.53;11.40;;;;;;;16.50;77.84;94613.63;4983394;28;20242;-70
2023/10/25 07:45:09;;;;;;;32.23;11.37;;;;;;;16.56;76.73;94602.16;5013262;28;20231;-70
2023/10/25 07:47:34;;;;;;;34.17;11.07;;;;;;;16.62;76.24;94600.38;4977718;28;20812;-70
2023/10/25 07:50:00;;;;;;;38.53;11.53;;;;;;;16.57;76.20;94600.31;4999730;28;20847;-69
2023/10/25 07:52:27;;;;;;;48.13;11.93;;;;;;;16.58;76.54;94612.47;5006861;28;20765;-69
2023/10/25 07:54:53;;;;;;;35.07;11.53;;;;;;;16.63;75.94;94612.53;5011139;28;20234;-69
2023/10/25 07:57:19;;;;;;;46.90;11.80;;;;;;;16.61;76.47;94606.69;5008847;28;20766;-70
2023/10/25 07:59:44;;;;;;;43.07;11.53;;;;;;;16.59;76.60;94611.44;4991626;28;20242;-70
2023/10/25 08:02:10;;;;;;;35.17;10.10;;;;;;;16.59;76.86;94606.16;4968953;28;20321;-70
2023/10/25 08:04:36;;;;;;;41.90;10.00;;;;;;;16.64;75.26;94600.94;5002872;28;20485;-70
2023/10/25 08:07:01;;;;;;;30.50;9.20;;;;;;;16.71;75.48;94602.34;4988454;28;20234;-68
2023/10/25 08:09:27;;;;;;;35.83;9.83;;;;;;;16.75;76.00;94606.09;5013867;28;20227;-70
2023/10/25 08:11:52;;;;;;;32.77;10.97;;;;;;;16.82;75.73;94612.00;5010080;28;20316;-70
2023/10/25 08:14:19;;;;;;;43.47;10.30;;;;;;;16.79;76.06;94624.91;4984428;28;20227;-70
2023/10/25 08:16:45;;;;;;;37.90;9.50;;;;;;;16.83;75.87;94621.53;4966216;28;20947;-69
2023/10/25 08:19:10;;;;;;;44.70;9.57;;;;;;;16.95;74.59;94618.78;4967925;28;20759;-69
2023/10/25 08:21:36;;;;;;;45.00;8.80;;;;;;;17.03;74.65;94622.84;5016508;28;20255;-69
2023/10/25 08:24:05;;;;;;;32.70;9.33;;;;;;;17.09;75.22;94629.78;5003790;28;20230;-70
2023/10/25 08:26:35;;;;;;;42.10;9.20;;;;;;;17.10;75.20;94624.22;5011075;28;20788;-70
2023/10/25 08:29:01;;;;;;;36.17;8.87;;;;;;;17.14;74.52;94625.34;4971543;28;20232;-70
2023/10/25 08:31:27;;;;;;;33.10;8.73;;;;;;;17.21;74.36;94628.59;4968997;28;20266;-69
2023/10/25 08:33:52;;;;;;;32.67;8.53;;;;;;;17.19;74.89;94645.78;5013630;28;20706;-70
2023/10/25 08:36:18;;;;;;;34.73;8.20;;;;;;;17.22;74.30;94640.78;5003423;28;20822;-69
2023/10/25 08:38:43;;;;;;;39.23;7.97;;;;;;;17.39;72.26;94640.69;4977322;28;20235;-69
2023/10/25 08:41:09;;;;;;;41.33;8.20;;;;;;;17.45;72.74;94631.78;4986574;28;20234;-69
2023/10/25 08:43:35;;;;;;;35.90;8.50;;;;;;;17.49;72.68;94646.91;4996326;28;20231;-70
2023/10/25 08:46:04;;;;;;;36.50;8.00;;;;;;;17.59;70.87;94622.44;4992977;28;20258;-69
2023/10/25 08:48:30;;;;;;;35.80;8.27;;;;;;;17.69;71.16;94629.66;4994010;28;20230;-69
2023/10/25 08:50:56;;;;;;;32.97;7.30;;;;;;;17.68;71.50;94639.44;4986114;28;20884;-70
2023/10/25 08:53:23;;;;;;;33.47;8.53;;;;;;;17.88;70.44;94617.66;4982697;28;20234;-70
2023/10/25 08:55:52;;;;;;;41.97;8.20;;;;;;;17.91;71.27;94633.06;5014343;28;20215;-70
2023/10/25 08:58:18;;;;;;;39.80;7.67;;;;;;;17.91;71.00;94635.72;4992285;28;20257;-69
2023/10/25 09:00:44;;;;;;;41.63;7.77;;;;;;;17.97;70.37;94632.84;5009291;28;20238;-70
2023/10/25 09:03:32;;;;;;;36.37;7.40;;;;;;;17.99;69.33;94638.69;5020363;28;20706;-70
2023/10/25 09:06:04;;;;;;;36.20;7.07;;;;;;;18.14;68.78;94633.53;5006610;28;20231;-70
2023/10/25 09:08:30;;;;;;;33.37;6.73;;;;;;;18.21;68.16;94633.31;4997783;28;20226;-70
2023/10/25 09:11:07;;;;;;;37.83;6.83;;;;;;;18.21;69.10;94629.84;5017830;28;20237;-70
2023/10/25 09:13:41;;;;;;;33.90;7.30;;;;;;;18.33;68.56;94625.16;5011281;28;20230;-70
2023/10/25 09:16:11;;;;;;;35.10;7.37;;;;;;;18.27;68.84;94640.22;4951476;28;20230;-69
2023/10/25 09:18:38;;;;;;;39.30;7.23;;;;;;;18.37;68.11;94626.25;5004060;28;20227;-71
2023/10/25 09:21:04;;;;;;;29.13;6.73;;;;;;;18.47;67.27;94629.81;5005999;28;20234;-69
2023/10/25 09:23:30;;;;;;;30.00;6.60;;;;;;;18.53;68.04;94626.13;4966775;28;20261;-70
2023/10/25 09:25:58;;;;;;;34.13;6.10;;;;;;;18.53;68.15;94631.44;4992384;28;20375;-71
2023/10/25 09:28:27;;;;;;;42.33;6.70;;;;;;;18.59;67.25;94629.63;4996867;28;20679;-70
2023/10/25 09:30:57;;;;;;;33.90;6.57;;;;;;;18.64;66.71;94619.84;4997853;28;20227;-70
2023/10/25 09:33:23;;;;;;;34.43;6.17;;;;;;;18.58;68.28;94628.81;4991289;28;20258;-70
2023/10/25 09:35:49;;;;;;;31.37;6.03;;;;;;;18.62;66.56;94624.63;4986390;28;20270;-70
2023/10/25 09:38:15;;;;;;;37.93;7.00;;;;;;;18.78;66.03;94620.19;5004610;28;20235;-69
2023/10/25 09:40:44;;;;;;;34.73;6.70;;;;;;;18.80;66.14;94613.56;4997677;28;20235;-70
2023/10/25 09:43:19;;;;;;;28.90;6.60;;;;;;;18.81;65.75;94609.06;4979913;28;20230;-71
2023/10/25 09:45:53;;;;;;;35.70;6.43;;;;;;;18.90;65.05;94604.06;4977966;28;20238;-69
2023/10/25 09:48:19;;;;;;;41.93;6.40;;;;;;;18.97;65.13;94601.97;4981585;28;20231;-69
2023/10/25 09:51:06;;;;;;;45.43;6.27;;;;;;;19.15;64.48;94601.53;4986886;28;20291;-70
2023/10/25 09:54:07;;;;;;;41.60;6.63;;;;;;;19.21;64.58;94592.50;5037752;28;20829;-69
2023/10/25 09:56:33;;;;;;;38.57;5.90;;;;;;;19.28;63.37;94595.72;5013183;28;20342;-70
2023/10/25 09:58:59;;;;;;;36.37;6.10;;;;;;;19.29;63.90;94592.03;4966628;28;20223;-70
2023/10/25 10:01:24;;;;;;;28.40;6.67;;;;;;;19.33;64.81;94587.78;5013317;28;20265;-69
2023/10/25 10:04:00;;;;;;;39.33;6.07;;;;;;;19.42;63.58;94580.91;4989446;28;20235;-69
2023/10/25 10:06:55;;;;;;;27.00;5.90;;;;;;;19.39;63.88;94584.13;5006135;28;20299;-78
2023/10/25 10:09:58;;;;;;;42.47;6.43;;;;;;;19.71;61.88;94566.09;4975445;28;20318;-78
2023/10/25 10:12:23;;;;;;;35.17;6.17;;;;;;;19.82;61.67;94564.25;4965362;28;20670;-78
2023/10/25 10:14:48;;;;;;;31.17;6.03;;;;;;;20.01;61.60;94558.13;4971763;28;20359;-78
2023/10/25 10:17:15;;;;;;;44.07;6.43;;;;;;;20.14;60.26;94557.59;5029130;28;20237;-79
2023/10/25 10:19:42;;;;;;;43.37;6.37;;;;;;;20.30;59.44;94549.66;5010507;28;20238;-80
2023/10/25 10:22:13;;;;;;;37.47;6.47;;;;;;;20.10;61.64;94548.59;4986955;28;20318;-79
2023/10/25 10:24:44;;;;;;;39.40;6.47;;;;;;;20.08;62.11;94555.22;5022714;28;20280;-78
2023/10/25 10:27:10;;;;;;;44.97;6.60;;;;;;;20.02;62.55;94554.44;5032913;28;20249;-78
2023/10/25 10:29:36;;;;;;;29.67;6.03;;;;;;;20.00;63.29;94543.28;5013819;28;20882;-77
2023/10/25 10:32:03;;;;;;;41.27;7.03;;;;;;;20.03;62.29;94544.59;5018224;28;20262;-78
2023/10/25 10:34:57;;;;;;;44.60;6.40;;;;;;;20.15;61.74;94531.84;5001117;28;20797;-77
2023/10/25 10:37:29;;;;;;;42.77;6.70;;;;;;;20.35;61.14;94520.41;5013833;28;20318;-78
2023/10/25 10:39:57;;;;;;;42.27;6.23;;;;;;;20.57;60.50;94512.88;5024441;28;20333;-81
2023/10/25 10:42:35;;;;;;;50.57;6.83;;;;;;;20.65;59.89;94509.69;5008229;28;20245;-79
2023/10/25 10:45:05;;;;;;;63.57;6.33;;;;;;;20.95;58.20;94514.06;4994697;28;20229;-78
2023/10/25 10:47:39;;;;;;;59.90;6.73;;;;;;;21.23;56.74;94508.88;4981226;28;20227;-82
2023/10/25 10:50:25;;;;;;;55.47;6.57;;;;;;;21.62;55.41;94508.09;5007774;28;20246;-78
2023/10/25 10:52:51;;;;;;;51.70;7.30;;;;;;;21.81;56.28;94501.81;5001683;28;20649;-80
2023/10/25 10:55:22;;;;;;;50.97;6.63;;;;;;;21.78;56.55;94494.38;4969359;28;20905;-80
2023/10/25 10:57:48;;;;;;;47.87;7.17;;;;;;;21.70;56.24;94499.53;4969985;28;20234;-79
2023/10/25 11:00:16;;;;;;;48.83;6.70;;;;;;;21.93;54.56;94496.16;4968586;28;20223;-78
2023/10/25 11:02:45;;;;;;;48.53;6.20;;;;;;;21.91;54.22;94496.44;4997024;28;20315;-70
2023/10/25 11:05:13;;;;;;;61.97;6.77;;;;;;;21.79;53.92;94490.66;4990969;28;20953;-70
2023/10/25 11:07:38;;;;;;;58.87;6.27;;;;;;;21.71;54.22;94490.47;5021733;28;20291;-70
2023/10/25 11:10:04;;;;;;;57.63;6.43;;;;;;;21.81;53.36;94482.38;5000233;28;20589;-70
2023/10/25 11:12:30;;;;;;;63.23;6.57;;;;;;;21.74;53.24;94488.03;5023539;28;20239;-71
2023/10/25 11:15:03;;;;;;;74.37;6.70;;;;;;;21.81;52.53;94469.84;5020538;28;20323;-69
2023/10/25 11:17:30;;;;;;;56.40;6.20;;;;;;;21.84;52.73;94468.50;4986698;28;20235;-68
2023/10/25 11:19:55;;;;;;;50.53;5.73;;;;;;;21.88;52.10;94465.00;4984305;28;20247;-71
2023/10/25 11:22:21;;;;;;;50.97;5.60;;;;;;;21.98;51.71;94474.78;5026636;28;20230;-71